Main page
METAR-TAF:

METAR-TAF

Airports :

Wuhan Tianhe International Airport

Wuhan, China

latitude: 30-37N, longitude: 114-08E, elevation: 23 m

Current weather observation

The report was made 48 minutes ago, at 21:00 UTC
Wind 6 kt from the East/Northeast
Temperature 12°C
Humidity 67%
Pressure 1026 hPa
Visibility 10 km or more
no clouds below 1500 m and no cumulonimbus

METAR: ZHHH 222100Z 06003MPS CAVOK 12/06 Q1026 NOSIG

Time: 05:48 (21:48 UTC)

Forecast

The report was made 6 hours and 41 minutes ago, at 15:07 UTC
Forecast valid from 22 at 18 UTC to 23 at 18 UTC
Wind 6 kt from the East/Southeast
Visibility: 6000 m
Becoming
from 22 at 22 UTC to 22 at 23 UTC
Visibility: 2400 m
mist
Becoming
from 23 at 01 UTC to 23 at 02 UTC
Visibility: 3000 m

TAF: ZHHH 221507Z 2218/2318 12003MPS 6000 NSC TX20/2307Z TN08/2223Z BECMG 2222/2223 2400 BR BECMG 2301/2302 3000

Weather observations and forecasts of more than 4000 airports (METAR and TAF reports).

The available stations are represented by yellow and red dots on the map.

Hover mouse over dot to see the name of the station.

Then click to see weather observations and forecasts.

To change the map : click on the green buttons with a black cross to zoom in, on the green button with a dash to zoom out, or on the green arrows for adjacent maps.


METAR-TAF: